Time;durP1;ratioP1;P1;durP2;ratioP2;P2;SDS_P1;SDS_P2;PMS_P1;PMS_P2;Temp;Humidity;BMP_temperature;BMP_pressure;BME280_temperature;BME280_humidity;BME280_pressure;Samples;Min_cycle;Max_cycle;Signal;HPM_P1;HPM_P2
2021/01/13 00:00:31;;;;;;;59.93;30.45;;;;;;;0.44;87.09;99149.73;1674458;81;26096;-80
2021/01/13 00:03:00;;;;;;;55.98;30.48;;;;;;;0.44;87.11;99148.41;1646058;84;26403;-79
2021/01/13 00:05:27;;;;;;;64.40;33.28;;;;;;;0.45;87.12;99149.24;1707432;82;25589;-79
2021/01/13 00:07:55;;;;;;;68.80;33.98;;;;;;;0.45;87.44;99155.31;1671591;84;26091;-79
2021/01/13 00:10:22;;;;;;;65.50;34.35;;;;;;;0.46;87.23;99155.66;1645849;83;28787;-80
2021/01/13 00:12:50;;;;;;;72.70;35.20;;;;;;;0.48;87.26;99155.49;1609925;86;26152;-79
2021/01/13 00:15:17;;;;;;;62.55;32.20;;;;;;;0.51;87.31;99152.55;1644049;86;26368;-80
2021/01/13 00:17:50;;;;;;;55.55;29.65;;;;;;;0.51;87.35;99152.55;1665034;84;25982;-78
2021/01/13 00:20:17;;;;;;;59.95;32.13;;;;;;;0.51;87.45;99154.67;1614174;84;25989;-79
2021/01/13 00:22:47;;;;;;;46.98;24.95;;;;;;;0.54;87.48;99160.13;1633453;84;28559;-79
2021/01/13 00:25:16;;;;;;;54.27;28.42;;;;;;;0.54;87.62;99164.08;1673681;84;25824;-80
2021/01/13 00:27:45;;;;;;;57.75;28.30;;;;;;;0.54;87.56;99173.30;1677963;84;26037;-79
2021/01/13 00:30:14;;;;;;;55.52;28.55;;;;;;;0.54;87.74;99165.39;1646810;85;25845;-80
2021/01/13 00:32:44;;;;;;;54.67;27.95;;;;;;;0.54;87.67;99164.91;1642219;84;26080;-80
2021/01/13 00:35:13;;;;;;;56.68;29.05;;;;;;;0.57;87.84;99162.45;1678704;83;28634;-79
2021/01/13 00:37:41;;;;;;;54.73;29.55;;;;;;;0.59;87.75;99163.12;1673308;84;26038;-79
2021/01/13 00:40:11;;;;;;;53.78;28.62;;;;;;;0.61;87.72;99160.67;1605680;84;26102;-79
2021/01/13 00:42:49;;;;;;;56.37;29.15;;;;;;;0.62;87.71;99157.03;1651291;84;25559;-79
2021/01/13 00:45:18;;;;;;;62.60;30.92;;;;;;;0.63;87.80;99154.75;1668734;82;26196;-81
2021/01/13 00:47:51;;;;;;;57.93;29.18;;;;;;;0.66;87.80;99161.52;1677678;83;28259;-80
2021/01/13 00:50:18;;;;;;;50.92;28.15;;;;;;;0.69;87.82;99169.08;1668073;83;26642;-79
2021/01/13 00:52:50;;;;;;;84.85;38.75;;;;;;;0.70;87.87;99170.27;1668758;84;25797;-80
2021/01/13 00:55:19;;;;;;;63.08;32.60;;;;;;;0.74;87.85;99177.34;1677373;83;26389;-79
2021/01/13 00:57:51;;;;;;;94.92;40.92;;;;;;;0.76;87.89;99185.92;1698263;83;26154;-80
2021/01/13 01:00:19;;;;;;;109.57;43.63;;;;;;;0.76;88.05;99190.70;1666014;83;27549;-79
2021/01/13 01:02:47;;;;;;;134.72;51.83;;;;;;;0.77;88.05;99192.34;1669213;83;26041;-80
2021/01/13 01:05:15;;;;;;;102.32;41.98;;;;;;;0.80;88.03;99191.20;1669049;84;25899;-80
2021/01/13 01:07:43;;;;;;;108.92;41.13;;;;;;;0.84;88.08;99189.06;1632349;84;26784;-80
2021/01/13 01:10:19;;;;;;;95.35;39.08;;;;;;;0.86;88.07;99191.05;1665016;83;26710;-79
2021/01/13 01:12:46;;;;;;;145.22;49.18;;;;;;;0.86;88.24;99184.45;1705278;82;27110;-80
2021/01/13 01:15:14;;;;;;;71.72;33.35;;;;;;;0.86;88.09;99195.83;1690414;83;26127;-79
2021/01/13 01:17:41;;;;;;;88.50;34.90;;;;;;;0.88;88.15;99193.86;1616980;84;26069;-80
2021/01/13 01:20:10;;;;;;;67.40;31.02;;;;;;;0.89;88.06;99203.43;1669372;83;25887;-79
2021/01/13 01:22:57;;;;;;;78.72;32.78;;;;;;;0.91;88.08;99208.05;1659635;84;26745;-80
2021/01/13 01:25:27;;;;;;;58.58;28.70;;;;;;;0.93;88.05;99207.39;1701735;83;28070;-80
2021/01/13 01:27:58;;;;;;;56.60;27.52;;;;;;;0.94;88.08;99212.19;1669789;84;35031;-80
2021/01/13 01:30:29;;;;;;;55.23;26.55;;;;;;;0.94;88.00;99212.19;1671238;82;25839;-79
2021/01/13 01:32:58;;;;;;;76.07;34.15;;;;;;;0.96;88.10;99212.84;1681666;83;26858;-80
2021/01/13 01:35:25;;;;;;;48.87;23.92;;;;;;;0.95;88.12;99213.81;1708059;83;25938;-80
2021/01/13 01:37:52;;;;;;;43.83;21.30;;;;;;;0.93;88.17;99214.47;1631808;83;28515;-79
2021/01/13 01:40:20;;;;;;;40.43;20.75;;;;;;;0.91;88.33;99204.58;1672052;84;25869;-80
2021/01/13 01:42:51;;;;;;;39.67;21.52;;;;;;;0.89;88.27;99207.87;1642991;84;25958;-80
2021/01/13 01:45:27;;;;;;;41.83;21.57;;;;;;;0.88;88.19;99213.63;1706290;82;26474;-80
2021/01/13 01:48:15;;;;;;;39.67;20.27;;;;;;;0.88;88.30;99221.53;1679946;83;26386;-79
2021/01/13 01:50:45;;;;;;;41.75;20.82;;;;;;;0.88;88.20;99226.80;1694867;82;28201;-80
2021/01/13 01:53:27;;;;;;;32.78;17.45;;;;;;;0.87;88.28;99233.08;1681769;84;25900;-80
2021/01/13 01:56:17;;;;;;;45.73;23.20;;;;;;;0.87;88.36;99235.72;1676152;84;25563;-80
2021/01/13 01:58:48;;;;;;;35.78;18.37;;;;;;;0.87;88.40;99238.84;1705178;82;26451;-80
2021/01/13 02:01:21;;;;;;;51.25;22.65;;;;;;;0.85;88.22;99240.32;1688040;82;25913;-80
2021/01/13 02:03:53;;;;;;;33.50;16.20;;;;;;;0.85;88.16;99239.00;1689388;83;27991;-80
2021/01/13 02:06:24;;;;;;;31.05;16.23;;;;;;;0.87;88.31;99242.79;1707734;82;26169;-80
2021/01/13 02:08:52;;;;;;;23.62;13.68;;;;;;;0.87;88.29;99241.47;1716392;82;26403;-80
2021/01/13 02:11:24;;;;;;;24.60;13.78;;;;;;;0.84;88.21;99236.02;1670577;84;26508;-80
2021/01/13 02:13:51;;;;;;;45.38;17.62;;;;;;;0.81;88.39;99232.89;1680459;82;26000;-80
2021/01/13 02:16:20;;;;;;;40.95;15.63;;;;;;;0.79;88.39;99233.85;1712431;82;28485;-80
2021/01/13 02:18:49;;;;;;;29.95;14.20;;;;;;;0.81;88.36;99234.20;1671803;83;25890;-79
2021/01/13 02:21:20;;;;;;;21.87;11.45;;;;;;;0.82;88.38;99231.40;1648223;85;26554;-79
2021/01/13 02:24:09;;;;;;;17.35;8.83;;;;;;;0.81;88.40;99240.31;1701767;83;33249;-80
2021/01/13 02:27:10;;;;;;;26.33;14.45;;;;;;;0.81;88.64;99248.22;1668675;84;25865;-79
2021/01/13 02:29:42;;;;;;;15.35;9.30;;;;;;;0.78;88.44;99244.56;1685976;83;27557;-79
2021/01/13 02:32:26;;;;;;;15.95;9.30;;;;;;;0.77;88.23;99248.16;1700305;82;25998;-79
2021/01/13 02:35:23;;;;;;;15.83;9.13;;;;;;;0.75;88.08;99252.28;1681309;82;26602;-79
2021/01/13 02:38:09;;;;;;;23.67;10.70;;;;;;;0.74;88.06;99253.77;1681320;84;26419;-80
2021/01/13 02:40:37;;;;;;;15.30;9.25;;;;;;;0.72;87.90;99262.33;1623712;84;25872;-81
2021/01/13 02:43:08;;;;;;;21.62;11.20;;;;;;;0.68;87.65;99260.48;1658297;82;28420;-80
2021/01/13 02:45:43;;;;;;;12.95;8.15;;;;;;;0.67;87.69;99260.16;1704404;83;26043;-81
2021/01/13 02:48:25;;;;;;;17.10;9.75;;;;;;;0.64;87.63;99267.05;1705462;83;26169;-80
2021/01/13 02:51:00;;;;;;;12.58;7.35;;;;;;;0.63;87.63;99266.73;1672122;82;26141;-81
2021/01/13 02:53:39;;;;;;;15.63;9.15;;;;;;;0.62;87.38;99278.75;1675559;83;25835;-80
2021/01/13 02:56:11;;;;;;;11.90;8.00;;;;;;;0.60;87.33;99289.91;1674439;84;27548;-81
2021/01/13 02:58:39;;;;;;;14.60;8.40;;;;;;;0.56;87.30;99286.77;1699779;82;26715;-80
2021/01/13 03:01:09;;;;;;;15.70;10.18;;;;;;;0.58;87.41;99292.70;1647446;85;25861;-81
2021/01/13 03:03:37;;;;;;;12.67;8.07;;;;;;;0.58;87.54;99287.44;1676776;83;25944;-80
2021/01/13 03:06:13;;;;;;;13.50;9.25;;;;;;;0.59;87.52;99294.38;1687833;83;26586;-80
2021/01/13 03:09:02;;;;;;;12.55;8.00;;;;;;;0.57;87.40;99290.23;1706172;82;28278;-80
2021/01/13 03:11:30;;;;;;;;;;;;;;;0.54;87.43;99295.31;1680202;84;26769;-79
2021/01/13 03:14:08;;;;;;;10.63;5.28;;;;;;;0.53;87.28;99304.70;1663160;83;26679;-81
2021/01/13 03:17:01;;;;;;;12.47;7.65;;;;;;;0.48;86.96;99306.96;1681832;83;26191;-80
2021/01/13 03:20:02;;;;;;;19.45;7.30;;;;;;;0.43;86.81;99311.85;1708630;82;26218;-81
2021/01/13 03:22:36;;;;;;;28.62;11.28;;;;;;;0.43;86.96;99317.95;1653623;84;27653;-80
2021/01/13 03:25:06;;;;;;;58.35;17.48;;;;;;;0.44;86.91;99322.74;1675867;83;25878;-80
2021/01/13 03:27:36;;;;;;;29.20;10.18;;;;;;;0.44;86.62;99326.69;1691306;83;25684;-80
2021/01/13 03:30:06;;;;;;;15.60;8.23;;;;;;;0.42;86.52;99326.02;1692208;82;25948;-80
2021/01/13 03:33:09;;;;;;;16.82;8.00;;;;;;;0.40;86.25;99323.55;1701689;82;26078;-81
2021/01/13 03:35:44;;;;;;;18.87;6.42;;;;;;;0.38;86.06;99326.00;1685250;82;27548;-80
2021/01/13 03:38:17;;;;;;;15.00;6.80;;;;;;;0.33;85.93;99326.45;1702681;83;25569;-79
2021/01/13 03:40:48;;;;;;;26.73;8.05;;;;;;;0.32;85.88;99327.92;1666551;83;25838;-79
2021/01/13 03:43:21;;;;;;;51.35;14.70;;;;;;;0.33;85.83;99328.25;1664922;83;25588;-80
2021/01/13 03:45:53;;;;;;;24.25;9.03;;;;;;;0.32;85.51;99330.05;1676968;83;25853;-79
2021/01/13 03:48:37;;;;;;;15.30;5.75;;;;;;;0.30;85.43;99338.59;1673541;84;27334;-80
2021/01/13 03:51:09;;;;;;;6.53;4.28;;;;;;;0.26;85.21;99334.61;1673362;83;25495;-80
2021/01/13 03:53:40;;;;;;;7.25;4.60;;;;;;;0.22;85.10;99345.59;1654451;84;26494;-80
2021/01/13 03:56:10;;;;;;;9.25;5.05;;;;;;;0.19;85.03;99345.44;1714339;82;26050;-80
2021/01/13 03:58:50;;;;;;;10.35;5.10;;;;;;;0.18;84.96;99346.40;1656959;83;33214;-80
2021/01/13 04:01:25;;;;;;;9.00;5.40;;;;;;;0.15;84.81;99352.47;1682657;83;28509;-79
2021/01/13 04:04:29;;;;;;;17.45;7.42;;;;;;;0.12;84.87;99343.55;1692374;83;26723;-79
2021/01/13 04:07:02;;;;;;;9.18;4.87;;;;;;;0.12;84.89;99348.81;1658595;83;25881;-80
2021/01/13 04:09:32;;;;;;;8.25;4.72;;;;;;;0.08;84.70;99354.04;1693950;82;25782;-80
2021/01/13 04:12:17;;;;;;;8.97;4.97;;;;;;;0.07;84.61;99348.42;1663274;83;26370;-79
2021/01/13 04:14:55;;;;;;;8.30;3.98;;;;;;;0.04;84.50;99353.53;1701501;81;27589;-80
2021/01/13 04:17:24;;;;;;;18.62;7.12;;;;;;;0.03;84.15;99357.60;1699468;83;26187;-79
2021/01/13 04:19:54;;;;;;;13.15;5.60;;;;;;;0.00;84.09;99356.13;1671188;84;26174;-79
2021/01/13 04:22:26;;;;;;;14.68;6.40;;;;;;;-0.06;83.84;99358.84;1645183;84;25957;-80
2021/01/13 04:24:55;;;;;;;11.95;5.87;;;;;;;-0.07;83.84;99357.20;1686866;83;26614;-81
2021/01/13 04:27:23;;;;;;;8.43;3.87;;;;;;;-0.09;83.93;99364.42;1711394;83;27679;-80
2021/01/13 04:29:51;;;;;;;10.90;5.28;;;;;;;-0.13;83.71;99358.30;1687607;83;25896;-80
2021/01/13 04:32:19;;;;;;;7.65;4.65;;;;;;;-0.13;83.74;99364.88;1669365;84;26511;-80
2021/01/13 04:34:46;;;;;;;14.78;5.08;;;;;;;-0.15;83.63;99361.56;1660229;84;25979;-80
2021/01/13 04:37:14;;;;;;;43.13;11.73;;;;;;;-0.16;83.65;99363.36;1675767;84;26492;-80
2021/01/13 04:39:42;;;;;;;33.20;9.65;;;;;;;-0.19;83.39;99372.02;1709482;82;27320;-80
2021/01/13 04:42:17;;;;;;;23.42;8.65;;;;;;;-0.22;83.46;99373.17;1628332;84;26077;-80
2021/01/13 04:45:08;;;;;;;95.42;20.40;;;;;;;-0.25;83.47;99376.08;1672259;82;25859;-79
2021/01/13 04:47:51;;;;;;;53.05;13.13;;;;;;;-0.23;83.49;99378.56;1654000;84;26714;-79
2021/01/13 04:50:22;;;;;;;38.55;10.20;;;;;;;-0.25;83.33;99387.92;1689466;82;26479;-80
2021/01/13 04:52:50;;;;;;;24.70;8.45;;;;;;;-0.26;83.53;99390.72;1666273;82;27523;-81
2021/01/13 04:55:27;;;;;;;50.05;17.10;;;;;;;-0.25;83.44;99389.23;1654506;84;25941;-80
2021/01/13 04:58:33;;;;;;;27.10;10.50;;;;;;;-0.27;83.42;99388.56;1681343;83;25425;-80
2021/01/13 05:01:45;;;;;;;39.08;15.63;;;;;;;-0.25;83.47;99392.35;1709353;82;25846;-80
2021/01/13 05:04:50;;;;;;;18.95;9.95;;;;;;;-0.26;83.38;99402.55;1705208;82;25839;-79
2021/01/13 05:07:31;;;;;;;12.78;7.12;;;;;;;-0.30;83.22;99407.26;1684028;83;27616;-80
2021/01/13 05:10:03;;;;;;;6.47;5.22;;;;;;;-0.31;83.33;99410.05;1664590;84;25950;-80
2021/01/13 05:12:56;;;;;;;9.48;5.85;;;;;;;-0.34;83.35;99408.53;1669671;82;25845;-80
2021/01/13 05:15:27;;;;;;;7.87;4.58;;;;;;;-0.34;83.30;99418.25;1701473;82;26043;-80
2021/01/13 05:18:00;;;;;;;;;;;;;;;-0.37;82.69;99411.48;1661404;83;26155;-80
2021/01/13 05:20:36;;;;;;;7.83;6.10;;;;;;;-0.43;82.38;99423.06;1699461;83;27535;-79
2021/01/13 05:23:06;;;;;;;8.85;6.10;;;;;;;-0.52;82.35;99419.51;1711348;82;26182;-79
2021/01/13 05:25:50;;;;;;;7.83;5.70;;;;;;;-0.52;82.98;99423.45;1659700;83;26156;-80
2021/01/13 05:28:26;;;;;;;9.63;6.92;;;;;;;-0.48;83.05;99419.55;1670654;83;25955;-80
2021/01/13 05:30:59;;;;;;;7.37;5.35;;;;;;;-0.46;83.22;99429.92;1693314;83;25843;-80
2021/01/13 05:33:31;;;;;;;9.33;6.12;;;;;;;-0.45;82.85;99427.64;1698232;83;30152;-82
2021/01/13 05:36:01;;;;;;;8.68;5.47;;;;;;;-0.46;82.82;99432.07;1684163;83;25919;-80
2021/01/13 05:38:43;;;;;;;12.53;6.62;;;;;;;-0.48;83.00;99430.55;1679943;82;25989;-80
2021/01/13 05:41:13;;;;;;;7.17;6.33;;;;;;;-0.43;83.11;99438.85;1687985;82;26072;-80
2021/01/13 05:43:48;;;;;;;10.82;6.83;;;;;;;-0.41;83.23;99437.73;1661884;84;26028;-80
2021/01/13 05:46:19;;;;;;;8.18;6.00;;;;;;;-0.39;83.07;99436.27;1695543;82;27562;-79
2021/01/13 05:48:53;;;;;;;11.25;6.83;;;;;;;-0.38;83.14;99447.95;1685243;82;25936;-80
2021/01/13 05:51:27;;;;;;;11.20;8.10;;;;;;;-0.37;83.14;99448.78;1701068;82;25940;-81
2021/01/13 05:53:56;;;;;;;10.65;7.75;;;;;;;-0.38;83.11;99453.21;1648834;84;25855;-80
2021/01/13 05:56:24;;;;;;;9.10;7.37;;;;;;;-0.38;83.05;99463.73;1661723;82;26240;-80
2021/01/13 05:59:06;;;;;;;10.32;6.62;;;;;;;-0.38;83.16;99470.79;1681800;84;27338;-80
2021/01/13 06:01:50;;;;;;;8.13;6.35;;;;;;;-0.37;83.16;99469.35;1701182;82;26597;-80
2021/01/13 06:04:18;;;;;;;13.93;8.30;;;;;;;-0.37;83.05;99475.93;1670039;83;25832;-80
2021/01/13 06:06:59;;;;;;;10.95;6.92;;;;;;;-0.39;83.17;99475.25;1700700;83;26540;-79
2021/01/13 06:09:27;;;;;;;13.05;6.85;;;;;;;-0.36;83.24;99478.05;1644780;83;25948;-79
2021/01/13 06:11:56;;;;;;;16.97;8.98;;;;;;;-0.36;83.25;99480.20;1713728;82;27441;-80
2021/01/13 06:14:28;;;;;;;12.93;6.45;;;;;;;-0.34;83.40;99478.25;1663406;83;26817;-80
2021/01/13 06:16:56;;;;;;;11.00;6.65;;;;;;;-0.29;83.38;99485.72;1692128;83;25925;-80
2021/01/13 06:19:24;;;;;;;11.63;6.53;;;;;;;-0.27;83.32;99478.50;1668946;83;26033;-81
2021/01/13 06:22:09;;;;;;;8.03;5.70;;;;;;;-0.27;83.15;99479.34;1697329;83;25725;-80
2021/01/13 06:24:38;;;;;;;13.48;6.17;;;;;;;-0.28;83.17;99481.61;1667505;82;27681;-80
2021/01/13 06:27:21;;;;;;;9.75;6.00;;;;;;;-0.29;83.52;99481.77;1707458;82;26226;-79
2021/01/13 06:29:52;;;;;;;8.50;6.22;;;;;;;-0.26;83.41;99482.80;1690321;82;26135;-81
2021/01/13 06:32:34;;;;;;;8.37;5.77;;;;;;;-0.27;83.28;99485.91;1704709;82;26187;-78
2021/01/13 06:35:43;;;;;;;10.55;6.97;;;;;;;-0.29;83.26;99488.34;1663357;83;26000;-80
2021/01/13 06:38:28;;;;;;;10.98;5.95;;;;;;;-0.27;83.58;99499.07;1687217;83;27618;-80
2021/01/13 06:41:01;;;;;;;9.70;6.60;;;;;;;-0.22;83.58;99502.11;1698565;81;25911;-79
2021/01/13 06:43:28;;;;;;;9.00;5.75;;;;;;;-0.21;83.50;99499.80;1680056;84;26488;-79
2021/01/13 06:45:57;;;;;;;11.30;6.55;;;;;;;-0.20;83.48;99505.90;1647318;84;27347;-80
2021/01/13 06:48:27;;;;;;;11.12;7.50;;;;;;;-0.19;83.54;99503.59;1666341;82;26775;-81
2021/01/13 06:51:01;;;;;;;11.33;6.37;;;;;;;-0.18;83.57;99504.78;1702708;82;33901;-80
2021/01/13 06:53:36;;;;;;;12.85;8.55;;;;;;;-0.13;83.52;99510.94;1700461;82;26120;-80
2021/01/13 06:56:13;;;;;;;18.85;10.78;;;;;;;-0.13;83.49;99514.38;1635312;85;26014;-81
2021/01/13 06:59:00;;;;;;;23.02;13.75;;;;;;;-0.10;83.52;99518.04;1681683;83;25894;-80
2021/01/13 07:01:29;;;;;;;22.22;12.82;;;;;;;-0.07;83.66;99516.92;1678010;83;25901;-80
2021/01/13 07:04:04;;;;;;;23.83;12.05;;;;;;;-0.05;83.64;99524.19;1673107;84;28714;-80
2021/01/13 07:06:34;;;;;;;21.10;11.18;;;;;;;-0.04;83.75;99527.98;1639213;84;25828;-80
2021/01/13 07:09:02;;;;;;;18.35;10.40;;;;;;;0.01;83.65;99532.81;1654897;83;26518;-79
2021/01/13 07:11:34;;;;;;;19.55;9.28;;;;;;;0.02;83.58;99540.23;1644952;85;26241;-80
2021/01/13 07:14:05;;;;;;;21.40;10.93;;;;;;;0.00;83.53;99547.77;1696892;82;26072;-80
2021/01/13 07:16:34;;;;;;;25.12;12.50;;;;;;;0.05;83.65;99551.77;1662766;84;27611;-79
2021/01/13 07:19:03;;;;;;;20.95;11.40;;;;;;;0.08;83.71;99552.80;1663005;84;26167;-79
2021/01/13 07:21:40;;;;;;;25.17;13.75;;;;;;;0.12;83.67;99558.12;1670699;83;25825;-80
2021/01/13 07:24:13;;;;;;;22.02;13.62;;;;;;;0.15;83.60;99552.06;1685781;83;25872;-80
2021/01/13 07:26:43;;;;;;;17.42;11.35;;;;;;;0.15;83.51;99553.89;1667078;82;26224;-80
2021/01/13 07:29:11;;;;;;;19.95;12.58;;;;;;;0.15;83.44;99559.95;1670047;83;27639;-79
2021/01/13 07:31:39;;;;;;;31.87;14.45;;;;;;;0.13;83.43;99553.21;1676635;83;25959;-80
2021/01/13 07:34:24;;;;;;;28.55;13.78;;;;;;;0.15;83.52;99545.98;1693711;84;25786;-79
2021/01/13 07:36:55;;;;;;;37.80;17.23;;;;;;;0.16;83.56;99555.05;1689671;82;26508;-79
2021/01/13 07:39:28;;;;;;;89.25;32.03;;;;;;;0.14;83.47;99563.58;1687637;83;26095;-79
2021/01/13 07:42:19;;;;;;;50.05;20.72;;;;;;;0.15;83.62;99570.49;1683351;83;28582;-81
2021/01/13 07:44:48;;;;;;;;;;;;;;;0.17;83.76;99572.48;1692609;83;25844;-80
2021/01/13 07:47:26;;;;;;;44.27;20.27;;;;;;;0.22;83.81;99570.73;1701283;82;25873;-79
2021/01/13 07:50:10;;;;;;;34.65;17.95;;;;;;;0.21;83.71;99569.09;1674654;83;25948;-78
2021/01/13 07:52:47;;;;;;;28.32;15.48;;;;;;;0.20;83.78;99572.21;1672385;83;25688;-79
2021/01/13 07:55:22;;;;;;;31.52;17.90;;;;;;;0.19;83.74;99573.69;1633633;85;27583;-80
2021/01/13 07:57:55;;;;;;;35.00;17.12;;;;;;;0.20;84.01;99573.53;1672815;83;25906;-79
2021/01/13 08:00:41;;;;;;;27.62;15.03;;;;;;;0.22;84.08;99582.11;1695703;83;25815;-80
2021/01/13 08:03:40;;;;;;;21.50;12.68;;;;;;;0.25;84.13;99576.56;1682189;83;25995;-79
2021/01/13 08:06:46;;;;;;;24.80;12.50;;;;;;;0.28;84.12;99574.94;1708010;82;26196;-80
2021/01/13 08:09:23;;;;;;;38.00;17.50;;;;;;;0.25;84.22;99573.94;1695453;82;28495;-80
2021/01/13 08:12:13;;;;;;;43.75;22.02;;;;;;;0.24;84.34;99574.05;1683284;83;26086;-80
2021/01/13 08:15:29;;;;;;;38.13;18.73;;;;;;;0.22;84.42;99567.63;1686372;83;25977;-79
2021/01/13 08:18:27;;;;;;;55.12;31.05;;;;;;;0.24;84.58;99576.69;1681430;84;26451;-79
2021/01/13 08:21:15;;;;;;;80.47;41.30;;;;;;;0.27;84.70;99577.25;1681466;84;26049;-79
2021/01/13 08:23:55;;;;;;;109.30;57.45;;;;;;;0.31;84.71;99574.66;1681343;84;27554;-79
2021/01/13 08:26:21;;;;;;;60.10;26.42;;;;;;;0.35;84.74;99574.70;1684348;83;26554;-79
2021/01/13 08:28:53;;;;;;;67.53;27.30;;;;;;;0.38;84.76;99574.42;1659437;84;26084;-80
2021/01/13 08:31:24;;;;;;;65.28;26.17;;;;;;;0.42;84.78;99574.95;1666152;83;26496;-79
2021/01/13 08:34:09;;;;;;;49.15;22.73;;;;;;;0.42;84.75;99581.53;1682002;83;25943;-79
2021/01/13 08:36:57;;;;;;;37.23;17.92;;;;;;;0.45;84.82;99582.56;1705656;81;27695;-79
2021/01/13 08:39:31;;;;;;;35.40;19.62;;;;;;;0.46;84.76;99587.67;1681518;84;25903;-80
2021/01/13 08:42:32;;;;;;;78.12;41.00;;;;;;;0.46;84.89;99578.94;1713015;82;26029;-79
2021/01/13 08:45:01;;;;;;;65.97;31.65;;;;;;;0.45;84.81;99591.27;1677396;83;26045;-80
2021/01/13 08:47:30;;;;;;;42.95;21.45;;;;;;;0.48;84.89;99591.47;1652527;85;25953;-79
2021/01/13 08:50:16;;;;;;;54.75;25.80;;;;;;;0.48;84.87;99599.38;1668310;83;28245;-79
2021/01/13 08:52:47;;;;;;;53.17;22.13;;;;;;;0.48;84.90;99588.84;1690739;82;25789;-79
2021/01/13 08:55:16;;;;;;;35.25;17.55;;;;;;;0.47;84.75;99590.63;1689404;83;26069;-79
2021/01/13 08:58:06;;;;;;;37.67;16.75;;;;;;;0.52;84.97;99595.47;1690776;83;26590;-80
2021/01/13 09:00:36;;;;;;;35.23;13.50;;;;;;;0.53;84.79;99594.50;1644139;84;25837;-80
2021/01/13 09:03:11;;;;;;;28.25;12.80;;;;;;;0.53;84.74;99596.66;1632000;84;28707;-79
2021/01/13 09:05:40;;;;;;;35.20;15.20;;;;;;;0.53;84.57;99601.92;1696746;82;25844;-80
2021/01/13 09:08:11;;;;;;;38.10;13.13;;;;;;;0.54;84.24;99594.83;1689437;83;26609;-80
2021/01/13 09:10:48;;;;;;;;;;;;;;;0.59;84.25;99608.41;1665401;83;25952;-81
2021/01/13 09:13:40;;;;;;;16.85;8.45;;;;;;;0.61;84.09;99603.81;1700263;82;26062;-80
2021/01/13 09:16:32;;;;;;;11.33;5.72;;;;;;;0.61;83.82;99610.40;1697630;82;27569;-81
2021/01/13 09:19:09;;;;;;;16.95;7.65;;;;;;;0.64;83.70;99617.51;1687560;83;26107;-80
2021/01/13 09:21:40;;;;;;;15.23;7.22;;;;;;;0.63;83.77;99617.19;1681809;83;25794;-80
2021/01/13 09:24:13;;;;;;;14.85;6.95;;;;;;;0.67;83.75;99618.55;1684007;83;25970;-80
2021/01/13 09:26:42;;;;;;;19.77;8.70;;;;;;;0.73;83.58;99619.27;1709053;82;26059;-81
2021/01/13 09:29:10;;;;;;;15.18;7.08;;;;;;;0.81;83.64;99615.91;1667432;83;28203;-79
2021/01/13 09:31:39;;;;;;;27.07;11.15;;;;;;;0.85;83.28;99611.16;1678456;82;26325;-80
2021/01/13 09:34:08;;;;;;;23.87;8.43;;;;;;;0.88;83.35;99610.35;1700639;83;25806;-81
2021/01/13 09:36:57;;;;;;;22.02;9.33;;;;;;;0.90;83.05;99606.27;1699776;82;25985;-79
2021/01/13 09:39:36;;;;;;;22.75;8.55;;;;;;;0.92;82.90;99613.55;1661577;82;25400;-80
2021/01/13 09:42:07;;;;;;;63.85;21.40;;;;;;;0.90;82.78;99611.55;1667841;83;27549;-81
2021/01/13 09:44:37;;;;;;;22.32;9.30;;;;;;;0.90;82.78;99622.09;1692005;83;26419;-80
2021/01/13 09:47:26;;;;;;;96.25;32.58;;;;;;;0.87;82.62;99617.10;1704593;83;25840;-80
2021/01/13 09:49:57;;;;;;;23.65;10.25;;;;;;;0.87;82.95;99619.73;1648772;84;26475;-79
2021/01/13 09:52:29;;;;;;;36.20;11.55;;;;;;;0.92;82.90;99620.13;1645510;85;25864;-79
2021/01/13 09:55:02;;;;;;;22.48;7.35;;;;;;;0.98;82.95;99616.89;1654373;82;28317;-80
2021/01/13 09:57:33;;;;;;;15.53;8.05;;;;;;;1.01;82.59;99622.69;1710274;82;25856;-80
2021/01/13 10:00:11;;;;;;;;;;;;;;;1.03;82.95;99620.73;1652004;84;26045;-80
2021/01/13 10:02:46;;;;;;;21.55;8.95;;;;;;;1.10;83.35;99616.52;1679931;83;25951;-79
2021/01/13 10:05:14;;;;;;;60.65;19.30;;;;;;;1.14;83.05;99624.47;1681126;83;25964;-79
2021/01/13 10:07:44;;;;;;;65.80;20.32;;;;;;;1.19;83.12;99632.77;1672525;82;27556;-79
2021/01/13 10:10:12;;;;;;;29.98;11.73;;;;;;;1.23;82.87;99628.84;1647707;83;25911;-79
2021/01/13 10:12:42;;;;;;;23.22;10.13;;;;;;;1.27;82.83;99630.19;1653447;84;25866;-79
2021/01/13 10:15:13;;;;;;;43.92;18.25;;;;;;;1.30;82.69;99632.55;1667147;83;25996;-81
2021/01/13 10:17:43;;;;;;;36.73;16.75;;;;;;;1.32;82.61;99631.06;1646497;84;26050;-79
2021/01/13 10:20:17;;;;;;;35.78;16.30;;;;;;;1.33;82.53;99627.42;1648673;84;28958;-81
2021/01/13 10:22:47;;;;;;;24.55;12.50;;;;;;;1.36;82.53;99635.05;1703826;82;25761;-80
2021/01/13 10:25:29;;;;;;;22.40;12.00;;;;;;;1.38;82.44;99635.24;1683857;82;25926;-80
2021/01/13 10:27:59;;;;;;;41.35;20.15;;;;;;;1.38;81.93;99631.77;1684309;83;26414;-80
2021/01/13 10:30:28;;;;;;;27.65;15.25;;;;;;;1.35;82.14;99623.66;1650167;84;26124;-79
2021/01/13 10:32:57;;;;;;;24.35;12.47;;;;;;;1.37;81.97;99623.50;1665662;84;27562;-80
2021/01/13 10:35:40;;;;;;;18.00;10.05;;;;;;;1.37;82.08;99626.98;1661928;82;78916;-81
2021/01/13 10:38:15;;;;;;;19.12;9.08;;;;;;;1.42;82.31;99626.52;1604527;85;26111;-81
2021/01/13 10:40:47;;;;;;;16.95;9.18;;;;;;;1.44;82.16;99631.16;1657331;84;25815;-80
2021/01/13 10:43:24;;;;;;;18.73;11.43;;;;;;;1.44;82.11;99629.84;1619875;86;26182;-80
2021/01/13 10:46:02;;;;;;;31.30;16.02;;;;;;;1.44;81.91;99629.84;1652068;84;27556;-81
2021/01/13 10:48:39;;;;;;;29.18;12.78;;;;;;;1.41;82.11;99630.96;1576715;86;25883;-81
2021/01/13 10:51:07;;;;;;;;;;;;;;;1.41;82.05;99631.48;1646965;86;25990;-80
2021/01/13 10:53:38;;;;;;;30.90;13.03;;;;;;;1.42;82.07;99633.95;1628321;86;26077;-80
2021/01/13 10:56:15;;;;;;;45.45;18.62;;;;;;;1.40;82.33;99631.12;1670025;83;25901;-82
2021/01/13 10:58:42;;;;;;;29.55;13.62;;;;;;;1.43;82.22;99625.55;1607354;87;26894;-81
2021/01/13 11:01:09;;;;;;;21.35;11.08;;;;;;;1.43;82.17;99620.28;1649592;84;25823;-80
2021/01/13 11:03:37;;;;;;;41.30;20.12;;;;;;;1.48;81.89;99625.91;1623983;85;25955;-80
2021/01/13 11:06:04;;;;;;;28.10;15.43;;;;;;;1.48;82.10;99623.27;1679402;84;25840;-84
2021/01/13 11:08:36;;;;;;;29.52;14.43;;;;;;;1.52;82.08;99629.41;1569044;84;26468;-81
2021/01/13 11:11:08;;;;;;;35.85;17.48;;;;;;;1.56;82.22;99624.16;1651595;84;27644;-80
2021/01/13 11:13:45;;;;;;;49.98;22.62;;;;;;;1.63;82.14;99628.82;1633839;85;25983;-80
2021/01/13 11:16:14;;;;;;;40.50;20.50;;;;;;;1.63;82.00;99623.06;1676861;84;26546;-80
2021/01/13 11:18:42;;;;;;;55.45;29.23;;;;;;;1.62;81.83;99628.02;1584382;84;25891;-81
2021/01/13 11:21:10;;;;;;;42.48;21.27;;;;;;;1.61;81.50;99626.34;1626547;84;26035;-85
2021/01/13 11:23:44;;;;;;;43.10;18.48;;;;;;;1.58;81.63;99627.16;1650379;84;27357;-82
2021/01/13 11:26:13;;;;;;;46.55;20.72;;;;;;;1.58;81.65;99615.28;1681213;84;26562;-80
2021/01/13 11:28:43;;;;;;;38.30;18.15;;;;;;;1.58;81.95;99611.32;1599180;84;26272;-80
2021/01/13 11:31:13;;;;;;;33.55;17.25;;;;;;;1.63;81.76;99601.94;1605476;87;25899;-81
2021/01/13 11:33:46;;;;;;;36.00;17.00;;;;;;;1.68;81.89;99606.77;1673270;84;25841;-80
2021/01/13 11:36:24;;;;;;;35.60;16.25;;;;;;;1.73;81.88;99605.82;1675380;84;28500;-80
2021/01/13 11:39:03;;;;;;;26.68;12.00;;;;;;;1.77;81.77;99607.16;1660146;85;25813;-81
2021/01/13 11:45:01;;;;;;;38.00;15.08;;;;;;;1.87;81.45;99610.52;1823295;77;25282;-81
2021/01/13 11:47:36;;;;;;;30.15;13.85;;;;;;;1.83;81.68;99605.22;1775960;79;25946;-81
2021/01/13 11:50:13;;;;;;;29.60;14.03;;;;;;;1.86;81.26;99607.56;1732650;80;28010;-81
2021/01/13 11:52:45;;;;;;;28.02;13.68;;;;;;;1.85;81.24;99608.05;1756927;80;26276;-82
2021/01/13 11:55:13;;;;;;;24.75;13.93;;;;;;;1.85;81.10;99603.25;1733031;81;25853;-82
2021/01/13 11:57:46;;;;;;;28.47;14.83;;;;;;;1.85;81.10;99596.65;1733487;80;25880;-80
2021/01/13 12:00:18;;;;;;;31.37;14.63;;;;;;;1.82;80.98;99594.34;1738971;81;25769;-82
2021/01/13 12:02:53;;;;;;;40.23;18.90;;;;;;;1.77;81.05;99598.77;1759814;80;27506;-79
2021/01/13 12:05:37;;;;;;;31.95;17.98;;;;;;;1.83;81.33;99598.13;1804598;77;26583;-81
2021/01/13 12:08:10;;;;;;;35.80;16.82;;;;;;;1.79;81.41;99599.43;1737932;79;26246;-81